Time;durP1;ratioP1;P1;durP2;ratioP2;P2;SDS_P1;SDS_P2;PMS_P1;PMS_P2;Temp;Humidity;BMP_temperature;BMP_pressure;BME280_temperature;BME280_humidity;BME280_pressure;Samples;Min_cycle;Max_cycle;Signal;HPM_P1;HPM_P2
2023/09/14 00:01:09;;;;;;;12.85;9.85;;;;;;;16.98;66.30;97700.41;10455338;28;20024;-54
2023/09/14 00:06:08;;;;;;;;;;;;;;;16.27;66.46;97587.88;10454641;28;20103;-53
2023/09/14 00:11:07;;;;;;;17.30;9.83;;;;;;;16.91;66.90;97690.13;10455853;28;19983;-53
2023/09/14 00:16:06;;;;;;;;;;;;;;;16.84;67.53;97692.91;10455661;28;20458;-54
2023/09/14 00:21:05;;;;;;;11.83;9.63;;;;;;;16.73;67.47;97673.09;10454557;28;19955;-54
2023/09/14 00:26:04;;;;;;;;;;;;;;;16.69;68.58;97696.78;10456365;28;20028;-53
2023/09/14 00:31:03;;;;;;;12.13;8.93;;;;;;;16.70;68.30;97685.44;10454697;28;19970;-54
2023/09/14 00:36:02;;;;;;;;;;;;;;;16.59;69.46;97683.09;10453501;28;20271;-54
2023/09/14 00:41:01;;;;;;;12.20;8.80;;;;;;;16.65;69.52;97674.19;10454443;28;19920;-54
2023/09/14 00:46:00;;;;;;;;;;;;;;;16.65;69.77;97679.44;10454672;28;20035;-54
2023/09/14 00:50:59;;;;;;;13.63;9.05;;;;;;;16.03;69.99;97584.13;10454645;28;19916;-53
2023/09/14 00:55:58;;;;;;;15.48;9.82;;;;;;;16.46;70.25;97685.13;10453346;28;20056;-53
2023/09/14 01:00:57;;;;;;;14.73;9.48;;;;;;;16.27;70.24;97649.84;10450261;28;20084;-53
2023/09/14 01:05:58;;;;;;;16.60;9.82;;;;;;;16.13;71.47;97673.75;10451147;28;20066;-54
2023/09/14 01:10:57;;;;;;;15.77;9.70;;;;;;;16.08;70.85;97675.63;10453233;28;20066;-54
2023/09/14 01:16:00;;;;;;;;;;;;;;;15.98;71.46;97669.78;10455559;28;20079;-54
2023/09/14 01:21:44;;;;;;;12.95;9.43;;;;;;;15.92;71.42;97669.06;10455291;28;19970;-54
2023/09/14 01:26:44;;;;;;;11.75;9.35;;;;;;;15.94;70.88;97669.88;10452728;28;20090;-54
2023/09/14 01:31:43;;;;;;;12.73;9.30;;;;;;;15.95;71.21;97666.34;10454364;28;20472;-53
2023/09/14 01:36:45;;;;;;;14.73;9.70;;;;;;;15.99;71.07;97668.88;10453853;28;20055;-53
2023/09/14 01:41:44;;;;;;;16.85;9.52;;;;;;;15.56;71.99;97629.75;10452133;28;20550;-53
2023/09/14 01:46:44;;;;;;;16.80;9.18;;;;;;;15.70;72.66;97680.00;10452505;28;20517;-53
2023/09/14 01:51:43;;;;;;;14.35;8.93;;;;;;;15.67;72.56;97680.06;10455041;28;20439;-53
2023/09/14 01:56:42;;;;;;;;;;;;;;;15.73;72.20;97681.69;10454785;28;20580;-53
2023/09/14 02:01:41;;;;;;;14.13;9.13;;;;;;;15.75;72.24;97677.28;10454643;28;20002;-53
2023/09/14 02:06:39;;;;;;;;;;;;;;;15.75;71.82;97677.28;10454570;28;20060;-53
2023/09/14 02:11:38;;;;;;;16.08;9.25;;;;;;;15.61;72.58;97683.66;10451841;28;19972;-53
2023/09/14 02:16:37;;;;;;;;;;;;;;;15.66;72.18;97678.34;10450454;28;20059;-53
2023/09/14 02:21:36;;;;;;;16.00;8.98;;;;;;;15.64;72.71;97678.34;10449819;28;19951;-54
2023/09/14 02:26:35;;;;;;;;;;;;;;;15.66;72.67;97678.34;10450545;28;20032;-53
2023/09/14 02:31:34;;;;;;;12.35;8.82;;;;;;;15.51;72.52;97658.63;10450497;28;19999;-53
2023/09/14 02:36:33;;;;;;;14.75;8.63;;;;;;;15.65;72.54;97676.63;10449823;28;20071;-53
2023/09/14 02:41:32;;;;;;;12.63;8.90;;;;;;;15.75;72.02;97677.28;10450173;28;20059;-54
2023/09/14 02:46:31;;;;;;;18.02;9.27;;;;;;;15.35;72.25;97605.81;10449973;28;20546;-53
2023/09/14 02:51:30;;;;;;;;;;;;;;;15.76;72.41;97671.13;10449949;28;20657;-53
2023/09/14 02:56:29;;;;;;;16.83;9.52;;;;;;;15.53;73.07;97628.06;10448850;28;20363;-53
2023/09/14 03:01:28;;;;;;;;;;;;;;;15.79;72.97;97669.34;10450255;28;20459;-54
2023/09/14 03:06:27;;;;;;;16.52;9.68;;;;;;;15.88;72.53;97676.13;10449156;28;20006;-53
2023/09/14 03:11:26;;;;;;;;;;;;;;;15.89;72.75;97670.00;10450015;28;20040;-54
2023/09/14 03:16:25;;;;;;;16.00;9.23;;;;;;;15.98;72.54;97669.78;10448727;28;20023;-53
2023/09/14 03:21:27;;;;;;;;;;;;;;;16.06;72.04;97678.28;10448102;28;20111;-54
2023/09/14 03:26:29;;;;;;;18.17;9.38;;;;;;;15.76;72.04;97637.97;10448071;28;19947;-54
2023/09/14 03:31:28;;;;;;;14.10;8.48;;;;;;;15.98;72.29;97680.25;10449281;28;20078;-53
2023/09/14 03:36:28;;;;;;;21.00;9.63;;;;;;;15.88;71.80;97658.66;10448411;28;20506;-54
2023/09/14 03:41:26;;;;;;;15.15;8.90;;;;;;;15.87;71.30;97638.63;10448744;28;20059;-53
2023/09/14 03:46:25;;;;;;;;;;;;;;;16.31;71.16;97677.69;10448935;28;20137;-53
2023/09/14 03:51:24;;;;;;;19.23;10.35;;;;;;;16.20;71.35;97696.28;10448792;28;19958;-54
2023/09/14 03:56:23;;;;;;;;;;;;;;;16.25;71.18;97693.53;10447421;28;20044;-54
2023/09/14 04:01:22;;;;;;;14.82;9.10;;;;;;;16.21;71.27;97699.78;10448620;28;19984;-53
2023/09/14 04:06:21;;;;;;;;;;;;;;;16.22;70.77;97698.88;10453132;28;20043;-54
2023/09/14 04:11:19;;;;;;;15.37;9.80;;;;;;;16.21;70.36;97702.41;10455720;28;20374;-53
2023/09/14 04:16:18;;;;;;;;;;;;;;;16.14;70.54;97706.03;10455634;28;20090;-53
2023/09/14 04:21:17;;;;;;;17.40;9.95;;;;;;;15.82;70.62;97650.94;10455961;28;20053;-54
2023/09/14 04:26:16;;;;;;;;;;;;;;;16.16;70.72;97701.63;10455210;28;20024;-53
2023/09/14 04:31:15;;;;;;;17.35;9.38;;;;;;;16.23;70.77;97716.28;10455253;28;19919;-54
2023/09/14 04:36:14;;;;;;;;;;;;;;;16.32;70.63;97689.88;10453517;28;20043;-53
2023/09/14 04:41:12;;;;;;;20.40;10.97;;;;;;;16.27;71.08;97702.22;10454298;28;20343;-53
2023/09/14 04:46:11;;;;;;;;;;;;;;;16.36;70.75;97702.00;10452865;28;20611;-54
2023/09/14 04:51:10;;;;;;;21.08;10.57;;;;;;;16.19;70.45;97663.16;10453924;28;20338;-54
2023/09/14 04:56:09;;;;;;;;;;;;;;;16.64;70.09;97707.38;10454442;28;20773;-54
2023/09/14 05:01:08;;;;;;;21.77;11.18;;;;;;;16.75;69.81;97719.34;10452104;28;20612;-54
2023/09/14 05:06:07;;;;;;;;;;;;;;;16.83;69.12;97715.66;10452885;28;20032;-54
2023/09/14 05:11:06;;;;;;;54.35;26.77;;;;;;;16.80;69.21;97722.72;10450889;28;19912;-54
2023/09/14 05:16:04;;;;;;;;;;;;;;;16.83;68.85;97718.28;10452829;28;20710;-55
2023/09/14 05:21:03;;;;;;;51.60;29.05;;;;;;;16.99;68.30;97720.50;10451780;28;20402;-54
2023/09/14 05:26:02;;;;;;;;;;;;;;;17.16;68.00;97725.28;10452981;28;20588;-54
2023/09/14 05:31:01;;;;;;;30.63;16.17;;;;;;;17.27;67.63;97718.81;10451758;28;19918;-54
2023/09/14 05:36:00;;;;;;;;;;;;;;;17.44;67.20;97720.09;10452329;28;20027;-54
2023/09/14 05:40:59;;;;;;;66.80;20.63;;;;;;;17.68;66.53;97719.38;10452361;28;20456;-54
2023/09/14 05:45:59;;;;;;;51.70;20.80;;;;;;;17.89;65.84;97712.63;10450234;28;20565;-54
2023/09/14 05:50:58;;;;;;;57.55;19.23;;;;;;;18.15;65.26;97719.72;10450229;28;20067;-54
2023/09/14 05:55:57;;;;;;;69.35;19.38;;;;;;;18.44;64.63;97711.78;10451404;28;20119;-54
2023/09/14 06:00:56;;;;;;;47.67;16.58;;;;;;;18.70;63.67;97714.41;10450767;28;20615;-54
2023/09/14 06:05:55;;;;;;;42.05;16.27;;;;;;;19.01;62.93;97711.56;10450961;28;20074;-54
2023/09/14 06:10:54;;;;;;;40.92;14.57;;;;;;;19.14;61.84;97680.44;10452433;28;20487;-54
2023/09/14 06:15:53;;;;;;;31.40;12.32;;;;;;;19.65;60.34;97711.00;10452075;28;20821;-54
2023/09/14 06:20:52;;;;;;;28.75;11.05;;;;;;;20.07;57.97;97714.63;10454081;28;20078;-54
2023/09/14 06:25:52;;;;;;;30.88;11.30;;;;;;;20.27;56.23;97701.50;10452490;28;20070;-55
2023/09/14 06:30:51;;;;;;;23.73;9.93;;;;;;;20.87;54.97;97721.91;10453367;28;20122;-55
2023/09/14 06:35:52;;;;;;;25.60;10.20;;;;;;;21.10;51.27;97707.69;10452698;28;20054;-54
2023/09/14 06:40:51;;;;;;;22.00;8.30;;;;;;;21.37;49.94;97699.53;10447297;28;20071;-54
2023/09/14 06:45:50;;;;;;;32.17;9.35;;;;;;;22.10;49.29;97721.66;10451541;28;20028;-54
2023/09/14 06:50:48;;;;;;;19.27;8.07;;;;;;;22.58;48.18;97728.97;10448629;28;20502;-54
2023/09/14 06:55:47;;;;;;;17.88;7.07;;;;;;;22.93;47.69;97736.09;10451517;28;20111;-55
2023/09/14 07:00:46;;;;;;;15.60;6.60;;;;;;;23.43;47.35;97727.28;10449444;28;20058;-54
2023/09/14 07:05:45;;;;;;;18.52;6.53;;;;;;;23.74;44.86;97730.94;10448852;28;20414;-54
2023/09/14 07:10:44;;;;;;;14.80;6.00;;;;;;;23.66;44.82;97712.00;10447646;28;20130;-53
2023/09/14 07:15:43;;;;;;;16.38;5.70;;;;;;;24.03;44.31;97743.47;10446652;28;20097;-54
2023/09/14 07:20:42;;;;;;;13.52;5.32;;;;;;;24.28;43.54;97735.00;10446182;28;20078;-53
2023/09/14 07:25:41;;;;;;;22.55;7.07;;;;;;;24.49;43.83;97746.16;10446563;28;20035;-53
2023/09/14 07:30:40;;;;;;;15.15;5.90;;;;;;;24.62;43.89;97735.72;10447578;28;20060;-53
2023/09/14 07:35:39;;;;;;;20.15;7.28;;;;;;;24.85;43.08;97712.28;10446478;28;20062;-53
2023/09/14 07:40:39;;;;;;;18.15;6.50;;;;;;;25.14;42.13;97737.09;10450491;28;20086;-53
2023/09/14 07:45:38;;;;;;;14.75;5.60;;;;;;;25.42;41.99;97740.75;10455866;28;20070;-53
2023/09/14 07:50:39;;;;;;;20.58;5.15;;;;;;;25.74;40.05;97741.44;10454614;28;20039;-53
2023/09/14 07:55:38;;;;;;;15.05;5.55;;;;;;;25.74;39.50;97709.53;10455119;28;20103;-53
2023/09/14 08:00:38;;;;;;;20.00;6.22;;;;;;;25.80;39.88;97708.28;10455183;28;20027;-53
2023/09/14 08:05:37;;;;;;;17.58;6.95;;;;;;;26.14;39.80;97738.88;10455214;28;20051;-54
2023/09/14 08:10:36;;;;;;;17.88;6.38;;;;;;;25.74;38.19;97649.25;10450485;28;20100;-53
2023/09/14 08:15:39;;;;;;;18.38;6.30;;;;;;;26.40;38.39;97734.56;10453445;28;20491;-53
2023/09/14 08:20:39;;;;;;;18.83;6.05;;;;;;;26.71;38.84;97728.03;10449650;28;20131;-53
2023/09/14 08:25:44;;;;;;;19.42;6.47;;;;;;;26.97;37.51;97728.97;10452269;28;20107;-54
2023/09/14 08:30:44;;;;;;;67.80;11.65;;;;;;;27.18;37.32;97721.31;10452199;28;20099;-54
2023/09/14 08:35:44;;;;;;;14.90;6.15;;;;;;;27.52;37.68;97728.81;10452907;28;20040;-54
2023/09/14 08:40:45;;;;;;;16.83;6.15;;;;;;;27.78;36.98;97714.47;10450583;28;20483;-54
2023/09/14 08:45:45;;;;;;;18.27;6.97;;;;;;;28.21;36.49;97716.72;10454211;28;20070;-54
2023/09/14 08:50:44;;;;;;;18.05;6.20;;;;;;;28.27;35.51;97704.75;10452040;28;20055;-54
2023/09/14 08:55:43;;;;;;;12.68;5.30;;;;;;;28.37;34.52;97710.25;10452648;28;20890;-54
2023/09/14 09:00:43;;;;;;;22.90;6.13;;;;;;;28.45;34.46;97670.47;10449594;28;20134;-54
2023/09/14 09:05:43;;;;;;;19.38;5.90;;;;;;;28.92;32.98;97683.88;10451800;28;20063;-54
2023/09/14 09:10:43;;;;;;;15.00;5.22;;;;;;;29.43;30.75;97699.53;10450739;28;20052;-54
2023/09/14 09:15:42;;;;;;;12.55;5.03;;;;;;;29.63;29.14;97695.28;10454117;28;20069;-54
2023/09/14 09:20:44;;;;;;;17.73;4.80;;;;;;;29.82;28.72;97690.16;10455493;28;20024;-54
2023/09/14 09:25:45;;;;;;;14.93;5.03;;;;;;;29.95;28.53;97689.19;10455250;28;20550;-54
2023/09/14 09:30:52;;;;;;;10.43;5.30;;;;;;;30.28;29.10;97689.09;10454310;28;20056;-55
2023/09/14 09:35:51;;;;;;;11.00;5.50;;;;;;;30.36;28.21;97691.13;10454469;28;20051;-56
2023/09/14 09:40:50;;;;;;;14.30;5.70;;;;;;;30.46;28.66;97673.34;10454570;28;20478;-54
2023/09/14 09:45:49;;;;;;;12.15;4.97;;;;;;;30.56;27.54;97668.06;10453561;28;20411;-54
2023/09/14 09:50:48;;;;;;;14.15;5.35;;;;;;;30.46;28.22;97653.75;10453637;28;20055;-54
2023/09/14 09:55:47;;;;;;;16.92;5.13;;;;;;;30.68;28.97;97648.31;10453071;28;20115;-54
2023/09/14 10:00:48;;;;;;;11.32;4.88;;;;;;;30.95;28.65;97630.84;10449915;28;20060;-54
2023/09/14 10:05:47;;;;;;;11.55;4.72;;;;;;;30.92;28.44;97623.91;10451943;28;20059;-54
2023/09/14 10:10:51;;;;;;;11.63;4.93;;;;;;;31.11;28.37;97636.59;10450583;28;20057;-54
2023/09/14 10:15:54;;;;;;;12.00;5.13;;;;;;;31.14;27.99;97601.47;10448300;28;20056;-54
2023/09/14 10:20:55;;;;;;;11.30;4.88;;;;;;;31.57;26.53;97621.84;10448379;28;20533;-55
2023/09/14 10:25:54;;;;;;;11.52;5.22;;;;;;;31.71;26.97;97617.94;10448031;28;20067;-55
2023/09/14 10:30:55;;;;;;;14.20;5.32;;;;;;;32.05;26.65;97611.38;10447479;28;20152;-56
2023/09/14 10:35:55;;;;;;;17.90;7.05;;;;;;;32.03;25.75;97567.69;10448144;28;20070;-55
2023/09/14 10:40:54;;;;;;;11.40;5.07;;;;;;;32.45;25.29;97624.66;10447471;28;20062;-56
2023/09/14 10:46:00;;;;;;;12.70;5.13;;;;;;;32.81;25.37;97614.16;10449969;28;20019;-53
2023/09/14 10:51:00;;;;;;;11.77;4.93;;;;;;;33.02;24.45;97595.13;10447714;28;20120;-55
2023/09/14 10:55:59;;;;;;;11.70;5.10;;;;;;;33.05;23.97;97617.22;10442621;28;20174;-55
2023/09/14 11:00:58;;;;;;;16.90;5.80;;;;;;;33.20;23.98;97611.38;10445434;28;20076;-56
2023/09/14 11:05:57;;;;;;;10.18;5.22;;;;;;;33.02;23.02;97597.81;10444878;28;20111;-53
2023/09/14 11:10:59;;;;;;;11.07;5.80;;;;;;;33.10;23.54;97606.03;10448432;28;20584;-56
2023/09/14 11:16:06;;;;;;;10.93;5.20;;;;;;;32.66;23.50;97597.66;10455795;28;20075;-56
2023/09/14 11:21:05;;;;;;;10.38;5.60;;;;;;;32.77;23.99;97596.66;10460837;28;20059;-55
2023/09/14 11:26:04;;;;;;;10.60;5.70;;;;;;;32.97;23.10;97594.72;10456244;28;20202;-54
2023/09/14 11:31:03;;;;;;;9.82;5.05;;;;;;;32.58;23.78;97590.31;10461745;28;20059;-55
2023/09/14 11:36:03;;;;;;;10.13;5.53;;;;;;;32.75;24.24;97583.34;10461409;28;20494;-55
2023/09/14 11:41:03;;;;;;;13.32;5.85;;;;;;;32.61;23.91;97590.03;10458522;28;20147;-55
2023/09/14 11:46:04;;;;;;;10.10;5.07;;;;;;;32.51;24.31;97585.63;10460362;28;20118;-55
2023/09/14 11:51:04;;;;;;;12.20;5.85;;;;;;;32.57;23.90;97587.75;10459513;28;20115;-54
2023/09/14 11:56:03;;;;;;;11.68;5.82;;;;;;;32.25;23.93;97564.75;10459847;28;20056;-54
2023/09/14 12:01:03;;;;;;;11.15;6.28;;;;;;;31.93;24.59;97562.31;10458858;28;20111;-54
2023/09/14 12:06:02;;;;;;;10.43;5.40;;;;;;;32.15;25.04;97574.63;10460620;28;20457;-54
2023/09/14 12:11:01;;;;;;;12.63;5.72;;;;;;;32.07;24.98;97561.91;10459413;28;21270;-54
2023/09/14 12:16:03;;;;;;;10.55;6.07;;;;;;;32.45;24.18;97580.84;10459782;28;20090;-54
2023/09/14 12:21:03;;;;;;;10.05;5.57;;;;;;;32.06;25.11;97562.06;10461262;28;20074;-54
2023/09/14 12:26:02;;;;;;;12.75;6.22;;;;;;;31.99;25.35;97570.66;10456801;28;20458;-54
2023/09/14 12:31:01;;;;;;;11.23;5.82;;;;;;;31.74;25.62;97563.16;10454474;28;20066;-54
2023/09/14 12:36:01;;;;;;;14.38;6.35;;;;;;;31.50;25.38;97577.78;10453930;28;20059;-54
2023/09/14 12:41:00;;;;;;;12.68;6.57;;;;;;;31.28;26.41;97556.50;10449063;28;20516;-55
2023/09/14 12:45:59;;;;;;;11.18;6.35;;;;;;;31.33;26.59;97565.84;10450611;28;20107;-55
2023/09/14 12:50:58;;;;;;;13.13;6.90;;;;;;;31.37;26.75;97569.09;10452643;28;20063;-55
2023/09/14 12:56:02;;;;;;;13.75;6.93;;;;;;;31.37;26.44;97567.25;10450952;28;20024;-55
2023/09/14 13:01:07;;;;;;;12.77;7.18;;;;;;;31.53;26.48;97556.03;10450197;28;20055;-55
2023/09/14 13:06:06;;;;;;;12.77;7.10;;;;;;;31.65;25.72;97521.91;10450907;28;20132;-55
2023/09/14 13:11:05;;;;;;;14.88;7.50;;;;;;;32.09;25.29;97561.78;10450754;28;20052;-55
2023/09/14 13:16:04;;;;;;;14.25;7.40;;;;;;;31.88;25.55;97552.00;10448969;28;20036;-55
2023/09/14 13:21:06;;;;;;;10.68;7.13;;;;;;;32.24;25.03;97560.34;10449974;28;20762;-56
2023/09/14 13:26:05;;;;;;;10.88;6.50;;;;;;;32.52;24.77;97557.78;10447919;28;20067;-56
2023/09/14 13:31:04;;;;;;;14.60;7.60;;;;;;;31.89;25.92;97559.03;10447951;28;20064;-55
2023/09/14 13:36:03;;;;;;;12.80;7.05;;;;;;;30.57;26.80;97444.81;10447899;28;20048;-55
2023/09/14 13:41:04;;;;;;;17.15;7.45;;;;;;;30.84;27.24;97564.75;10449782;28;20052;-55
2023/09/14 13:46:03;;;;;;;11.45;7.28;;;;;;;30.74;27.49;97570.06;10448456;28;20108;-55
2023/09/14 13:51:07;;;;;;;13.40;7.47;;;;;;;30.54;27.94;97558.41;10449487;28;20032;-55
2023/09/14 13:56:05;;;;;;;12.55;7.53;;;;;;;30.36;28.72;97518.94;10449834;28;20110;-55
2023/09/14 14:01:04;;;;;;;16.92;7.30;;;;;;;30.51;28.00;97553.31;10449417;28;20027;-55
2023/09/14 14:06:04;;;;;;;13.32;7.72;;;;;;;30.44;28.25;97557.50;10450654;28;20039;-55
2023/09/14 14:11:03;;;;;;;14.65;7.43;;;;;;;30.41;28.36;97546.22;10452864;28;20056;-54
2023/09/14 14:16:02;;;;;;;12.43;8.48;;;;;;;30.43;28.36;97553.13;10453140;28;20056;-54
2023/09/14 14:21:01;;;;;;;15.43;8.50;;;;;;;30.55;28.60;97546.72;10453753;28;20060;-54
2023/09/14 14:26:00;;;;;;;15.63;8.25;;;;;;;30.65;28.21;97549.44;10454341;28;20083;-54
2023/09/14 14:30:59;;;;;;;15.70;10.30;;;;;;;30.64;28.13;97542.41;10452402;28;20044;-54
2023/09/14 14:35:58;;;;;;;13.63;7.90;;;;;;;30.69;28.52;97561.59;10449511;28;20059;-54
2023/09/14 14:40:57;;;;;;;15.88;9.00;;;;;;;30.23;30.18;97565.47;10452184;28;20447;-54
2023/09/14 14:45:57;;;;;;;14.52;8.50;;;;;;;29.91;31.57;97565.53;10452092;28;20032;-54
2023/09/14 14:50:58;;;;;;;16.58;8.85;;;;;;;29.74;32.30;97558.84;10447050;28;20063;-54
2023/09/14 14:55:57;;;;;;;14.68;8.88;;;;;;;29.65;32.66;97567.66;10448316;28;20498;-54
2023/09/14 15:00:56;;;;;;;17.05;10.30;;;;;;;29.60;32.95;97572.50;10447747;28;20474;-54
2023/09/14 15:05:59;;;;;;;16.40;9.85;;;;;;;29.16;33.39;97575.09;10446431;28;20264;-54
2023/09/14 15:10:58;;;;;;;16.92;9.40;;;;;;;28.55;34.29;97567.38;10444754;28;20062;-54
2023/09/14 15:15:57;;;;;;;15.85;10.90;;;;;;;28.63;33.76;97561.44;10443936;28;20048;-54
2023/09/14 15:20:58;;;;;;;23.13;16.30;;;;;;;28.68;34.08;97586.00;10443839;28;20395;-54
2023/09/14 15:25:58;;;;;;;18.42;10.13;;;;;;;28.32;34.79;97584.31;10443460;28;20111;-54
2023/09/14 15:30:57;;;;;;;19.60;10.10;;;;;;;28.18;35.32;97596.88;10443887;28;20116;-54
2023/09/14 15:35:56;;;;;;;14.52;10.15;;;;;;;27.70;36.09;97577.34;10444246;28;20028;-55
2023/09/14 15:40:55;;;;;;;18.63;10.68;;;;;;;27.55;36.12;97566.84;10444909;28;20024;-54
2023/09/14 15:45:55;;;;;;;17.30;10.15;;;;;;;27.54;35.45;97545.63;10443563;28;20119;-55
2023/09/14 15:50:54;;;;;;;15.15;10.40;;;;;;;27.93;35.55;97612.97;10441870;28;20107;-54
2023/09/14 15:55:53;;;;;;;21.67;11.77;;;;;;;27.56;35.64;97581.00;10440835;28;20129;-54
2023/09/14 16:00:57;;;;;;;19.33;10.98;;;;;;;27.54;35.50;97577.59;10445921;28;20105;-54
2023/09/14 16:05:57;;;;;;;27.20;11.60;;;;;;;27.89;35.77;97627.50;10451275;28;20514;-54
2023/09/14 16:10:56;;;;;;;18.75;11.80;;;;;;;27.81;36.00;97626.25;10447840;28;20099;-56
2023/09/14 16:15:55;;;;;;;20.35;11.98;;;;;;;27.56;36.79;97613.00;10448949;28;20068;-54
2023/09/14 16:20:54;;;;;;;19.67;12.10;;;;;;;27.59;36.44;97650.13;10450497;28;20206;-54
2023/09/14 16:25:53;;;;;;;19.67;12.80;;;;;;;27.53;36.75;97645.22;10449919;28;20046;-54
2023/09/14 16:30:52;;;;;;;27.13;15.55;;;;;;;27.46;36.67;97646.59;10448568;28;20044;-54
2023/09/14 16:35:56;;;;;;;24.42;12.65;;;;;;;27.24;36.79;97649.91;10450455;28;20849;-54
2023/09/14 16:40:55;;;;;;;21.63;11.43;;;;;;;27.04;37.37;97659.31;10450055;28;20086;-55
2023/09/14 16:45:54;;;;;;;17.23;11.27;;;;;;;26.79;37.47;97619.22;10449671;28;20426;-55
2023/09/14 16:50:53;;;;;;;16.63;11.82;;;;;;;27.04;37.46;97656.66;10449527;28;20119;-55
2023/09/14 16:55:52;;;;;;;24.92;12.88;;;;;;;26.97;37.91;97665.06;10449669;28;20658;-58
2023/09/14 17:00:51;;;;;;;20.20;12.30;;;;;;;26.87;38.78;97666.66;10448703;28;20038;-54
2023/09/14 17:05:53;;;;;;;20.38;13.68;;;;;;;26.85;38.61;97675.72;10449398;28;20043;-55
2023/09/14 17:10:52;;;;;;;19.08;12.75;;;;;;;26.74;39.34;97692.38;10449991;28;20067;-56
2023/09/14 17:15:51;;;;;;;21.52;12.90;;;;;;;26.58;39.71;97695.22;10450834;28;20048;-54
2023/09/14 17:20:50;;;;;;;15.48;12.95;;;;;;;26.45;40.30;97705.84;10451971;28;20540;-54
2023/09/14 17:25:53;;;;;;;18.90;12.48;;;;;;;25.83;39.22;97671.72;10450788;28;20046;-54
2023/09/14 17:30:52;;;;;;;24.30;12.57;;;;;;;25.92;39.98;97726.09;10448822;28;20145;-55
2023/09/14 17:35:51;;;;;;;23.20;12.82;;;;;;;26.07;40.61;97769.50;10451383;28;20035;-55
2023/09/14 17:40:50;;;;;;;19.92;12.25;;;;;;;26.08;41.91;97806.59;10449490;28;20101;-56
2023/09/14 17:45:49;;;;;;;22.27;13.82;;;;;;;25.40;49.42;97843.59;10450468;28;20067;-55
2023/09/14 17:50:52;;;;;;;23.13;19.23;;;;;;;23.97;57.66;97854.28;10450118;28;20040;-54
2023/09/14 17:55:53;;;;;;;31.92;21.02;;;;;;;22.91;64.91;97862.34;10450112;28;20090;-54
2023/09/14 18:00:52;;;;;;;31.23;26.95;;;;;;;22.37;70.46;97835.81;10446385;28;20417;-55
2023/09/14 18:05:52;;;;;;;34.20;27.80;;;;;;;22.20;74.79;97831.28;10449725;28;20036;-57
2023/09/14 18:10:52;;;;;;;33.15;28.75;;;;;;;21.91;78.08;97782.41;10447928;28;20073;-55
2023/09/14 18:15:52;;;;;;;34.50;30.75;;;;;;;21.73;78.81;97792.91;10445918;28;20497;-55
2023/09/14 18:20:52;;;;;;;40.53;33.90;;;;;;;21.80;80.69;97819.88;10445555;28;20067;-54
2023/09/14 18:25:55;;;;;;;33.50;29.27;;;;;;;21.64;80.97;97819.75;10444487;28;20074;-54
2023/09/14 18:30:55;;;;;;;37.00;32.30;;;;;;;21.52;82.77;97823.78;10444902;28;20111;-56
2023/09/14 18:35:56;;;;;;;35.47;31.95;;;;;;;21.55;83.02;97825.44;10445301;28;20123;-54
2023/09/14 18:41:02;;;;;;;37.15;33.30;;;;;;;21.56;84.19;97816.56;10440602;28;20125;-56
2023/09/14 18:46:01;;;;;;;35.70;31.90;;;;;;;21.36;84.27;97793.69;10443596;28;20506;-57
2023/09/14 18:51:02;;;;;;;35.50;31.33;;;;;;;21.42;84.89;97803.97;10445134;28;20545;-54
2023/09/14 18:56:01;;;;;;;36.22;31.90;;;;;;;21.38;84.69;97798.91;10444502;28;20123;-54
2023/09/14 19:01:00;;;;;;;37.00;33.00;;;;;;;21.07;85.19;97772.03;10444686;28;20056;-56
2023/09/14 19:05:59;;;;;;;37.63;32.60;;;;;;;21.18;84.38;97808.50;10444564;28;20119;-56
2023/09/14 19:10:58;;;;;;;33.88;30.42;;;;;;;21.05;84.41;97808.16;10412206;28;20127;-54
2023/09/14 19:15:57;;;;;;;35.35;30.77;;;;;;;20.90;84.59;97811.47;10402844;28;20021;-55
2023/09/14 19:20:57;;;;;;;39.70;32.15;;;;;;;20.54;86.29;97798.00;10400988;28;20115;-55
2023/09/14 19:25:56;;;;;;;35.63;30.85;;;;;;;20.34;87.28;97817.22;10402427;28;20056;-54
2023/09/14 19:30:56;;;;;;;41.55;32.30;;;;;;;20.16;87.86;97835.47;10400200;28;20135;-54
2023/09/14 19:35:55;;;;;;;35.78;31.98;;;;;;;19.94;88.88;97829.31;10406771;28;20499;-53
2023/09/14 19:40:54;;;;;;;41.20;36.78;;;;;;;19.85;90.67;97830.50;10409147;28;20518;-52
2023/09/14 19:45:53;;;;;;;45.00;36.45;;;;;;;19.85;90.28;97825.22;10410437;28;20036;-53
2023/09/14 19:50:53;;;;;;;39.60;35.50;;;;;;;19.60;91.32;97805.09;10408503;28;20049;-52
2023/09/14 19:55:53;;;;;;;35.53;31.77;;;;;;;19.66;92.10;97851.38;10409921;28;20470;-54
2023/09/14 20:00:52;;;;;;;37.22;33.35;;;;;;;19.77;91.68;97849.22;10409477;28;20605;-53
2023/09/14 20:05:51;;;;;;;35.42;31.27;;;;;;;19.69;91.42;97839.88;10409516;28;20068;-53
2023/09/14 20:10:50;;;;;;;34.28;30.80;;;;;;;19.91;90.95;97851.34;10411032;28;20037;-53
2023/09/14 20:15:49;;;;;;;34.00;30.52;;;;;;;19.83;90.35;97834.97;10411125;28;20177;-53
2023/09/14 20:20:48;;;;;;;36.85;32.85;;;;;;;20.06;89.98;97849.91;10410194;28;20061;-53
2023/09/14 20:25:47;;;;;;;36.47;32.63;;;;;;;19.92;89.50;97804.78;10410127;28;20062;-53
2023/09/14 20:30:47;;;;;;;36.00;31.95;;;;;;;20.16;89.80;97855.69;10412062;28;20063;-53
2023/09/14 20:35:47;;;;;;;37.55;33.53;;;;;;;19.94;89.68;97798.56;10412086;28;20067;-53
2023/09/14 20:40:49;;;;;;;37.42;33.33;;;;;;;20.20;89.12;97844.97;10411617;28;20063;-53
2023/09/14 20:45:49;;;;;;;39.00;35.00;;;;;;;20.00;89.24;97794.81;10409833;28;20063;-53
2023/09/14 20:50:48;;;;;;;40.00;35.58;;;;;;;20.32;89.11;97855.97;10411225;28;20064;-53
2023/09/14 20:55:48;;;;;;;39.22;35.35;;;;;;;20.30;89.57;97858.63;10409895;28;20060;-52
2023/09/14 21:00:47;;;;;;;40.45;36.25;;;;;;;20.31;89.54;97843.72;10411789;28;20059;-53
2023/09/14 21:05:48;;;;;;;36.25;32.42;;;;;;;20.21;88.90;97836.16;10411915;28;20119;-52
2023/09/14 21:10:47;;;;;;;34.10;30.50;;;;;;;20.23;88.84;97865.06;10409991;28;20060;-53
2023/09/14 21:15:46;;;;;;;32.95;29.63;;;;;;;20.05;88.63;97837.66;10407428;28;20032;-54
2023/09/14 21:20:45;;;;;;;33.88;30.45;;;;;;;20.03;88.59;97826.31;10408094;28;20452;-53
2023/09/14 21:25:44;;;;;;;35.13;31.63;;;;;;;20.24;88.61;97854.47;10407118;28;20436;-53
2023/09/14 21:30:43;;;;;;;37.80;33.85;;;;;;;20.02;88.46;97817.53;10407631;28;20115;-53
2023/09/14 21:35:51;;;;;;;39.63;33.25;;;;;;;20.20;88.41;97852.88;10405843;28;20040;-53
2023/09/14 21:41:01;;;;;;;31.30;28.05;;;;;;;20.16;87.76;97851.25;10407364;28;20083;-52
2023/09/14 21:46:00;;;;;;;28.65;25.67;;;;;;;20.00;87.11;97829.06;10406319;28;20068;-52
2023/09/14 21:50:59;;;;;;;28.80;25.70;;;;;;;20.15;87.24;97848.72;10406397;28;20035;-52
2023/09/14 21:55:58;;;;;;;31.48;28.05;;;;;;;20.16;87.18;97839.88;10406180;28;20028;-52
2023/09/14 22:00:57;;;;;;;36.25;32.35;;;;;;;19.82;87.17;97791.13;10404755;28;20499;-52
2023/09/14 22:05:56;;;;;;;34.55;30.88;;;;;;;18.24;88.32;97563.56;10408868;28;20032;-52
2023/09/14 22:11:02;;;;;;;35.30;31.48;;;;;;;20.01;88.88;97842.19;10409671;28;20127;-52
2023/09/14 22:16:01;;;;;;;36.47;31.98;;;;;;;20.02;88.82;97835.97;10407552;28;20124;-53
2023/09/14 22:21:00;;;;;;;37.30;33.42;;;;;;;20.05;89.26;97842.94;10406996;28;20078;-52
2023/09/14 22:26:02;;;;;;;38.70;34.80;;;;;;;19.92;89.30;97810.91;10405099;28;20042;-53
2023/09/14 22:31:01;;;;;;;36.38;32.50;;;;;;;19.97;88.87;97808.09;10407698;28;20108;-52
2023/09/14 22:36:00;;;;;;;34.25;29.67;;;;;;;20.12;88.55;97839.16;10408668;28;20055;-52
2023/09/14 22:40:59;;;;;;;31.65;27.63;;;;;;;20.01;87.68;97820.25;10407213;28;20033;-52
2023/09/14 22:45:59;;;;;;;31.08;27.75;;;;;;;20.12;87.36;97827.72;10408301;28;20024;-52
2023/09/14 22:51:14;;;;;;;33.90;29.20;;;;;;;20.12;87.38;97833.00;10406030;28;20071;-52
2023/09/14 22:56:14;;;;;;;36.08;32.22;;;;;;;20.12;87.94;97823.34;10408173;28;20495;-52
2023/09/14 23:01:14;;;;;;;36.53;32.63;;;;;;;20.12;87.95;97825.97;10408424;28;20048;-52
2023/09/14 23:06:14;;;;;;;36.78;32.95;;;;;;;20.19;88.11;97818.66;10406218;28;20060;-52